CheckWX is a tool to help pilots better visualize weather data.  It is not intended as a substitute for an official pre-flight weather briefing.

09:49:09 UTC

LICT TAF
Vincenzo Florio Trapani-Birgi Airport
Trapani, Italy
TAF LICT 060200Z 0603/0612 03004KT CAVOK PROB30 TEMPO 0603/0606 5000 BR SCT010 BECMG 0609/0611 35010KT 9999 SCT020

Apr-6@
03:00 UTC

Apr-6 @ 03:00 UTC

Apr-6@
09:00 UTC

Apr-6 @ 09:00 UTC

TAF LICT 060200Z 0603/0612 03004KT CAVOK

Expired

Wind
  • 030° at 4 KTS
Conditions
No significant weather
Cloud Levels
  • No significant clouds

Apr-6@
03:00 UTC

Apr-6 @ 03:00 UTC

Apr-6@
06:00 UTC

Apr-6 @ 06:00 UTC

PROB30 TEMPO 0603/0606 5000 BR SCT010

Expired

Conditions
Mist
Cloud Levels
  • Scattered at 1,000' AGL

Apr-6@
09:00 UTC

Apr-6 @ 09:00 UTC

Apr-6@
12:00 UTC

Apr-6 @ 12:00 UTC

BECMG 0609/0611 35010KT 9999 SCT020

Becoming

Becoming Conditions expected by Mon, Apr 6, 2020 @ 11:00 UTC

Wind
  • 350° at 10 KTS
Conditions
No significant weather
Cloud Levels
  • Scattered at 2,000' AGL